Flight Track Log - Related Links

Times and Time Zones

All times are in EDT time to prevent confusion due to time zone crossing. See the N53RT flight status page for this flight to view local times or setup timezone preferences in your user account.

Time Position Orientation Groundspeed Altitude Reporting Facility
EDT Latitude Longitude Course Direction KTS MPH feet Rate Location/Type
Mon 06:49:02 AM 41.5347 -93.6589 187° South 106 122 1,500  Level Minneapolis Center
Mon 06:50:15 AM 41.5014 -93.6647 187° South 135 155 2,800 992 Climbing Minneapolis Center
Mon 06:51:15 AM 41.4703 -93.6286 139° Southeast 150 173 3,700 833 Climbing Minneapolis Center
Mon 06:52:03 AM 41.4381 -93.6100 157° South 157 181 4,300 716 Climbing Minneapolis Center
Mon 06:53:04 AM 41.4025 -93.5719 141° Southeast 164 189 5,000 595 Climbing Minneapolis Center
Mon 06:54:04 AM 41.3667 -93.5294 138° Southeast 172 198 5,500 550 Climbing Minneapolis Center
Mon 06:55:04 AM 41.3275 -93.4894 143° Southeast 178 205 6,100 545 Climbing Minneapolis Center
Mon 06:56:05 AM 41.2853 -93.4450 142° Southeast 180 207 6,600 496 Climbing Minneapolis Center
Mon 06:57:05 AM 41.2453 -93.4036 142° Southeast 183 211 7,100 446 Climbing Minneapolis Center
Mon 06:58:06 AM 41.2039 -93.3611 142° Southeast 187 215 7,500 390 Climbing Minneapolis Center
Mon 06:59:08 AM 41.1611 -93.3172 142° Southeast 194 223 7,900 439 Climbing Minneapolis Center
Mon 07:00:09 AM 41.1178 -93.2736 143° Southeast 196 226 8,400 446 Climbing Minneapolis Center
Mon 07:01:09 AM 41.0694 -93.2253 143° Southeast 201 231 8,800 350 Climbing Minneapolis Center
Mon 07:02:09 AM 41.0264 -93.1783 141° Southeast 202 232 9,100 149 Climbing Minneapolis Center
Mon 07:03:10 AM 40.9789 -93.1322 144° Southeast 212 244 9,100  Level Minneapolis Center
Mon 07:04:10 AM 40.9319 -93.0839 142° Southeast 215 247 9,100  Level Minneapolis Center
Mon 07:05:11 AM 40.8844 -93.0353 142° Southeast 216 249 9,100  Level Minneapolis Center
Mon 07:06:11 AM 40.8419 -92.9958 145° Southeast 219 252 9,100  Level Minneapolis Center
Mon 07:07:12 AM 40.7947 -92.9475 142° Southeast 216 249 9,100  Level Minneapolis Center
Mon 07:08:13 AM 40.7464 -92.8986 143° Southeast 218 251 9,100  Level Minneapolis Center
Mon 07:09:13 AM 40.6889 -92.8414 143° Southeast 218 251 9,100  Level Minneapolis Center
Mon 07:10:14 AM 40.6414 -92.7936 143° Southeast 217 250 9,100  Level Minneapolis Center
Mon 07:11:14 AM 40.5939 -92.7456 142° Southeast 217 250 9,100  Level Minneapolis Center
Mon 07:12:15 AM 40.5456 -92.6978 143° Southeast 217 250 9,100  Level Minneapolis Center
Mon 07:13:16 AM 40.4983 -92.6506 143° Southeast 216 249 9,100  Level Minneapolis Center
Mon 07:14:16 AM 40.4503 -92.6022 143° Southeast 216 249 9,100  Level Minneapolis Center
Mon 07:15:17 AM 40.4031 -92.5544 142° Southeast 216 249 9,100  Level Minneapolis Center
Mon 07:16:17 AM 40.3544 -92.5064 143° Southeast 216 249 9,100  Level Minneapolis Center
Mon 07:17:18 AM 40.3058 -92.4583 143° Southeast 215 247 9,100  Level Minneapolis Center
Mon 07:18:21 AM 40.2578 -92.4111 143° Southeast 215 247 9,100  Level Kansas City Center
Mon 07:19:22 AM 40.2097 -92.3636 143° Southeast 216 249 9,100  Level Kansas City Center
Mon 07:20:23 AM 40.1619 -92.3156 142° Southeast 217 250 9,100  Level Kansas City Center
Mon 07:21:23 AM 40.1136 -92.2683 143° Southeast 217 250 9,100  Level Kansas City Center
Mon 07:22:24 AM 40.0656 -92.2206 143° Southeast 217 250 9,100  Level Kansas City Center
Mon 07:23:25 AM 40.0169 -92.1731 143° Southeast 218 251 9,100  Level Kansas City Center
Mon 07:24:26 AM 39.9589 -92.1167 143° Southeast 218 251 9,100  Level Kansas City Center
Mon 07:25:27 AM 39.9103 -92.0689 143° Southeast 219 252 9,100  Level Kansas City Center
Mon 07:26:27 AM 39.8606 -92.0214 144° Southeast 221 254 9,100  Level Kansas City Center
Mon 07:27:28 AM 39.8133 -91.9739 142° Southeast 219 252 9,100  Level Kansas City Center
Mon 07:28:29 AM 39.7656 -91.9264 143° Southeast 217 250 9,100  Level Kansas City Center
Mon 07:29:30 AM 39.7169 -91.8797 144° Southeast 217 250 9,100  Level Kansas City Center
Mon 07:30:31 AM 39.6678 -91.8333 144° Southeast 218 251 9,100 -49 Level Kansas City Center
Mon 07:31:32 AM 39.6189 -91.7867 144° Southeast 219 252 9,000 -49 Descending Kansas City Center
Mon 07:32:33 AM 39.5711 -91.7383 142° Southeast 218 251 9,000  Level Kansas City Center
Mon 07:33:34 AM 39.5231 -91.6911 143° Southeast 217 250 9,000  Level Kansas City Center
Mon 07:34:35 AM 39.4722 -91.6417 143° Southeast 218 251 9,000  Level Kansas City Center
Mon 07:35:36 AM 39.4225 -91.5956 144° Southeast 219 252 9,000  Level Kansas City Center
Mon 07:36:37 AM 39.3739 -91.5486 143° Southeast 218 251 9,000  Level Kansas City Center
Mon 07:37:38 AM 39.3147 -91.4931 144° Southeast 219 252 9,000  Level Kansas City Center
Mon 07:38:39 AM 39.2656 -91.4467 144° Southeast 218 251 9,000  Level Kansas City Center
Mon 07:39:40 AM 39.2172 -91.3994 143° Southeast 219 252 9,000  Level Kansas City Center
Mon 07:40:41 AM 39.1686 -91.3525 143° Southeast 219 252 9,000 49 Level Kansas City Center
Mon 07:41:42 AM 39.1197 -91.3061 144° Southeast 219 252 9,100 49 Climbing Kansas City Center
Mon 07:42:43 AM 39.0703 -91.2597 144° Southeast 219 252 9,100  Level Kansas City Center
Mon 07:43:44 AM 39.0214 -91.2133 144° Southeast 219 252 9,100  Level Kansas City Center
Mon 07:44:45 AM 38.9717 -91.1669 144° Southeast 220 253 9,100  Level Kansas City Center
Mon 07:45:46 AM 38.9225 -91.1206 144° Southeast 221 254 9,100  Level Kansas City Center
Mon 07:46:47 AM 38.8733 -91.0744 144° Southeast 220 253 9,100  Level Kansas City Center
Mon 07:47:49 AM 38.8133 -91.0189 144° Southeast 221 254 9,100  Level Kansas City Center
Mon 07:48:50 AM 38.7642 -90.9719 143° Southeast 222 255 9,100  Level Kansas City Center
Mon 07:49:51 AM 38.7144 -90.9250 144° Southeast 222 255 9,100  Level Kansas City Center
Mon 07:50:52 AM 38.6644 -90.8792 144° Southeast 223 257 9,100  Level Kansas City Center
Mon 07:51:53 AM 38.6144 -90.8322 144° Southeast 223 257 9,100  Level Kansas City Center
Mon 07:52:54 AM 38.5639 -90.7858 144° Southeast 224 258 9,100  Level Kansas City Center
Mon 07:53:55 AM 38.5144 -90.7392 144° Southeast 223 257 9,100  Level Kansas City Center
Mon 07:54:56 AM 38.4647 -90.6928 144° Southeast 223 257 9,100  Level Kansas City Center
Mon 07:55:57 AM 38.4147 -90.6469 144° Southeast 223 257 9,100  Level Kansas City Center
Mon 07:56:59 AM 38.3544 -90.5922 145° Southeast 222 255 9,100  Level Kansas City Center
Mon 07:58:00 AM 38.3050 -90.5453 143° Southeast 222 255 9,100  Level Kansas City Center
Mon 07:59:01 AM 38.2550 -90.4992 144° Southeast 222 255 9,100  Level Kansas City Center
Mon 08:00:02 AM 38.2050 -90.4522 144° Southeast 223 257 9,100  Level Kansas City Center
Mon 08:01:03 AM 38.1547 -90.4061 144° Southeast 224 258 9,100  Level Kansas City Center
Mon 08:02:05 AM 38.1039 -90.3589 144° Southeast 226 260 9,100  Level Kansas City Center
Mon 08:03:06 AM 38.0539 -90.3125 144° Southeast 224 258 9,100  Level Kansas City Center
Mon 08:04:07 AM 38.0031 -90.2667 145° Southeast 225 259 9,100 -197 Level Kansas City Center
Mon 08:05:08 AM 37.9511 -90.2192 144° Southeast 229 264 8,700 -439 Descending Kansas City Center
Mon 08:06:10 AM 37.8881 -90.1572 142° Southeast 238 274 8,200 -488 Descending Kansas City Center
Mon 08:07:11 AM 37.8350 -90.1114 146° Southeast 234 269 7,700 -443 Descending Kansas City Center
Mon 08:08:12 AM 37.7806 -90.0625 145° Southeast 239 275 7,300 -393 Descending Kansas City Center
Mon 08:09:13 AM 37.7283 -90.0133 143° Southeast 237 273 6,900 -443 Descending Kansas City Center
Mon 08:10:14 AM 37.6733 -89.9694 148° Southeast 236 272 6,400 -439 Descending Kansas City Center
Mon 08:11:16 AM 37.6167 -89.9269 149° Southeast 238 274 6,000 -488 Descending Kansas City Center
Mon 08:12:17 AM 37.5644 -89.8725 140° Southeast 233 268 5,400 -492 Descending Kansas City Center
Mon 08:13:18 AM 37.5131 -89.8264 145° Southeast 229 264 5,000 -439 Descending Kansas City Center
Mon 08:14:20 AM 37.4622 -89.7822 145° Southeast 224 258 4,500 -634 Descending Kansas City Center
Mon 08:15:21 AM 37.4128 -89.7411 147° Southeast 217 250 3,700 -541 Descending Kansas City Center
Mon 08:16:22 AM 37.3672 -89.7061 149° Southeast 197 227 3,400 -293 Descending Kansas City Center
Mon 08:17:24 AM 37.3200 -89.6783 155° Southeast 161 185 3,100 -488 Descending Kansas City Center
Mon 08:18:25 AM 37.2853 -89.6586 156° South 146 168 2,400 -738 Descending Kansas City Center
Mon 08:19:26 AM 37.2528 -89.6344 149° Southeast 138 159 1,600 -780 Descending Kansas City Center
Mon 08:20:28 AM 37.2333 -89.6064 131° Southeast 120 138 800 -488 Descending Kansas City Center
Mon 08:21:29 AM 37.2269 -89.5764 105° East 113 130 600 -197 Descending Kansas City Center

Login

Don't have an account? Register now (free) for customized features, flight alerts, and more!